createdAt,value
2023-08-14T00:01:13.236Z,99329.75
2023-08-14T00:03:40.301Z,99317.63
2023-08-14T00:06:07.411Z,99343.91
2023-08-14T00:08:34.628Z,99335.19
2023-08-14T00:11:01.771Z,99324.78
2023-08-14T00:13:29.035Z,99301.34
2023-08-14T00:15:56.230Z,99335.53
2023-08-14T00:18:23.319Z,99328.56
2023-08-14T00:20:50.482Z,99321.63
2023-08-14T00:23:17.572Z,99328.56
2023-08-14T00:25:44.646Z,99324.38
2023-08-14T00:28:11.754Z,99323.38
2023-08-14T00:30:38.850Z,99329.59
2023-08-14T00:33:06.131Z,99327.88
2023-08-14T00:35:33.167Z,99307.91
2023-08-14T00:38:00.246Z,99320.19
2023-08-14T00:40:27.346Z,99320.19
2023-08-14T00:42:54.429Z,99316.88
2023-08-14T00:45:24.780Z,99284.38
2023-08-14T00:47:55.695Z,99299.44
2023-08-14T00:50:23.126Z,99282.44
2023-08-14T00:52:54.430Z,99294.63
2023-08-14T00:55:27.216Z,99268.28
2023-08-14T00:57:56.090Z,99299.53
2023-08-14T01:00:23.921Z,99278.75
2023-08-14T01:02:51.376Z,99289.13
2023-08-14T01:05:18.600Z,99306.69
2023-08-14T01:07:45.907Z,99291.66
2023-08-14T01:10:13.247Z,99256.91
2023-08-14T01:13:02.244Z,99300.41
2023-08-14T01:15:37.899Z,99288.88
2023-08-14T01:18:05.407Z,99292.34
2023-08-14T01:20:34.600Z,99289.78
2023-08-14T01:23:07.034Z,99288.00
2023-08-14T01:25:38.561Z,99298.63
2023-08-14T01:28:07.120Z,99288.78
2023-08-14T01:30:34.196Z,99292.34
2023-08-14T01:33:01.697Z,99291.50
2023-08-14T01:35:36.289Z,99288.13
2023-08-14T01:38:03.317Z,99299.53
2023-08-14T01:40:36.633Z,99298.66
2023-08-14T01:43:10.281Z,99296.00
2023-08-14T01:45:40.981Z,99237.44
2023-08-14T01:48:10.285Z,99279.97
2023-08-14T01:50:40.976Z,99233.06
2023-08-14T01:53:08.166Z,99281.84
2023-08-14T01:55:35.250Z,99254.13
2023-08-14T01:58:02.396Z,99240.94
2023-08-14T02:00:33.048Z,99285.19
2023-08-14T02:03:01.538Z,99298.63
2023-08-14T02:05:29.101Z,99292.53
2023-08-14T02:07:56.529Z,99295.09
2023-08-14T02:10:24.794Z,99269.97
2023-08-14T02:12:53.952Z,99281.50
2023-08-14T02:15:23.944Z,99266.38
2023-08-14T02:17:51.970Z,99236.66
2023-08-14T02:20:18.992Z,99281.94
2023-08-14T02:22:46.124Z,99264.66
2023-08-14T02:25:13.203Z,99283.78
2023-08-14T02:27:40.361Z,99284.69
2023-08-14T02:30:08.160Z,99273.34
2023-08-14T02:32:36.306Z,99278.56
2023-08-14T02:35:04.319Z,99288.88
2023-08-14T02:37:34.872Z,99300.16
2023-08-14T02:40:02.093Z,99276.50
2023-08-14T02:42:34.015Z,99296.59
2023-08-14T02:45:01.227Z,99295.56
2023-08-14T02:47:31.292Z,99276.38
2023-08-14T02:49:58.401Z,99290.84
2023-08-14T02:52:27.160Z,99301.97
2023-08-14T02:54:54.186Z,99298.41
2023-08-14T02:57:21.337Z,99235.91
2023-08-14T02:59:48.538Z,99270.41
2023-08-14T03:02:16.262Z,99266.94
2023-08-14T03:04:43.785Z,99283.53
2023-08-14T03:07:11.100Z,99271.38
2023-08-14T03:09:38.164Z,99308.84
2023-08-14T03:12:05.430Z,99279.28
2023-08-14T03:14:32.411Z,99312.28
2023-08-14T03:16:59.554Z,99259.72
2023-08-14T03:19:26.721Z,99290.53
2023-08-14T03:21:54.018Z,99305.84
2023-08-14T03:24:21.055Z,99271.19
2023-08-14T03:26:48.122Z,99311.06
2023-08-14T03:29:15.649Z,99313.63
2023-08-14T03:31:42.707Z,99292.41
2023-08-14T03:34:10.609Z,99282.91
2023-08-14T03:36:38.351Z,99289.75
2023-08-14T03:39:05.676Z,99307.91
2023-08-14T03:41:32.681Z,99279.22
2023-08-14T03:44:02.168Z,99291.28
2023-08-14T03:46:29.356Z,99277.38
2023-08-14T03:48:56.457Z,99290.34
2023-08-14T03:51:23.563Z,99293.03
2023-08-14T03:53:50.918Z,99292.00
2023-08-14T03:56:18.065Z,99294.44
2023-08-14T03:58:45.192Z,99312.06
2023-08-14T04:01:13.407Z,99292.47
2023-08-14T04:03:40.861Z,99280.13
2023-08-14T04:06:08.131Z,99268.72
2023-08-14T04:08:35.298Z,99311.34
2023-08-14T04:11:02.344Z,99309.53
2023-08-14T04:13:29.573Z,99315.69
2023-08-14T04:16:00.960Z,99308.25
2023-08-14T04:18:28.979Z,99264.53
2023-08-14T04:20:56.639Z,99310.31
2023-08-14T04:23:26.131Z,99317.97
2023-08-14T04:25:54.213Z,99294.88
2023-08-14T04:28:22.220Z,99288.72
2023-08-14T04:30:49.731Z,99236.53
2023-08-14T04:33:18.127Z,99279.00
2023-08-14T04:35:46.774Z,99329.75
2023-08-14T04:38:14.908Z,99272.06
2023-08-14T04:40:46.995Z,99312.00
2023-08-14T04:43:14.406Z,99309.34
2023-08-14T04:45:41.547Z,99312.53
2023-08-14T04:48:08.682Z,99287.38
2023-08-14T04:50:36.321Z,99299.06
2023-08-14T04:53:06.558Z,99279.16
2023-08-14T04:55:35.650Z,99310.22
2023-08-14T04:58:02.863Z,99301.97
2023-08-14T05:00:30.252Z,99290.72
2023-08-14T05:03:00.211Z,99278.38
2023-08-14T05:05:27.375Z,99304.97
2023-08-14T05:07:54.488Z,99303.00
2023-08-14T05:10:22.008Z,99310.06
2023-08-14T05:12:49.408Z,99303.56
2023-08-14T05:15:16.598Z,99285.34
2023-08-14T05:17:43.626Z,99306.88
2023-08-14T05:20:11.362Z,99256.97
2023-08-14T05:22:38.540Z,99300.53
2023-08-14T05:25:06.913Z,99294.44
2023-08-14T05:27:38.206Z,99306.56
2023-08-14T05:30:06.208Z,99320.56
2023-08-14T05:32:33.682Z,99318.72
2023-08-14T05:35:00.733Z,99304.81
2023-08-14T05:37:27.988Z,99317.34
2023-08-14T05:39:54.937Z,99329.59
2023-08-14T05:42:21.971Z,99308.50
2023-08-14T05:44:49.002Z,99330.41
2023-08-14T05:47:15.988Z,99310.59
2023-08-14T05:49:43.004Z,99339.41
2023-08-14T05:52:10.075Z,99301.09
2023-08-14T05:54:37.062Z,99291.81
2023-08-14T05:57:04.323Z,99298.22
2023-08-14T05:59:31.710Z,99320.66
2023-08-14T06:02:01.079Z,99312.22
2023-08-14T06:04:29.881Z,99325.63
2023-08-14T06:06:57.009Z,99330.97
2023-08-14T06:09:24.633Z,99330.22
2023-08-14T06:11:51.804Z,99336.34
2023-08-14T06:14:18.937Z,99317.28
2023-08-14T06:16:45.907Z,99347.72
2023-08-14T06:19:12.945Z,99345.47
2023-08-14T06:21:39.965Z,99338.41
2023-08-14T06:24:07.440Z,99359.88
2023-08-14T06:26:34.479Z,99333.69
2023-08-14T06:29:01.640Z,99354.13
2023-08-14T06:31:28.613Z,99349.69
2023-08-14T06:33:55.695Z,99332.19
2023-08-14T06:36:23.138Z,99343.50
2023-08-14T06:38:50.185Z,99353.69
2023-08-14T06:41:17.248Z,99359.50
2023-08-14T06:43:45.920Z,99353.09
2023-08-14T06:46:13.085Z,99360.50
2023-08-14T06:48:40.200Z,99355.81
2023-08-14T06:51:07.439Z,99372.41
2023-08-14T06:53:34.458Z,99377.22
2023-08-14T06:56:02.422Z,99357.72
2023-08-14T06:58:29.580Z,99379.06
2023-08-14T07:00:56.740Z,99376.72
2023-08-14T07:03:24.225Z,99372.16
2023-08-14T07:05:51.452Z,99375.34
2023-08-14T07:08:18.490Z,99363.34
2023-08-14T07:10:45.520Z,99374.34
2023-08-14T07:13:12.563Z,99374.72
2023-08-14T07:15:41.597Z,99351.56
2023-08-14T07:18:09.518Z,99365.47
2023-08-14T07:20:36.768Z,99382.75
2023-08-14T07:23:04.146Z,99384.06
2023-08-14T07:25:31.466Z,99384.22
2023-08-14T07:27:58.510Z,99395.44
2023-08-14T07:30:25.802Z,99392.44
2023-08-14T07:32:53.109Z,99362.53
2023-08-14T07:35:20.308Z,99408.06
2023-08-14T07:37:47.471Z,99406.88
2023-08-14T07:40:14.648Z,99411.97
2023-08-14T07:42:41.954Z,99407.31
2023-08-14T07:45:09.347Z,99402.97
2023-08-14T07:47:36.612Z,99418.25
2023-08-14T07:50:04.030Z,99394.38
2023-08-14T07:52:31.789Z,99398.38
2023-08-14T07:54:58.866Z,99425.28
2023-08-14T07:57:26.044Z,99430.78
2023-08-14T07:59:53.148Z,99433.59
2023-08-14T08:02:20.941Z,99401.78
2023-08-14T08:04:48.839Z,99413.13
2023-08-14T08:07:16.717Z,99434.06
2023-08-14T08:09:44.190Z,99438.56
2023-08-14T08:12:11.451Z,99428.69
2023-08-14T08:14:38.670Z,99440.19
2023-08-14T08:17:05.818Z,99436.97
2023-08-14T08:19:33.232Z,99410.72
2023-08-14T08:22:00.905Z,99431.22
2023-08-14T08:24:28.023Z,99433.47
2023-08-14T08:27:07.240Z,99437.53
2023-08-14T08:29:34.283Z,99428.41
2023-08-14T08:32:01.276Z,99442.31
2023-08-14T08:34:28.899Z,99456.69
2023-08-14T08:36:55.940Z,99440.13
2023-08-14T08:39:23.056Z,99433.63
2023-08-14T08:41:50.380Z,99447.66
2023-08-14T08:44:27.772Z,99452.44
2023-08-14T08:46:59.648Z,99458.69
2023-08-14T08:49:29.099Z,99418.34
2023-08-14T08:51:56.744Z,99444.66
2023-08-14T08:54:24.427Z,99439.47
2023-08-14T08:56:51.552Z,99440.34
2023-08-14T08:59:22.729Z,99462.53
2023-08-14T09:01:50.690Z,99458.56
2023-08-14T09:04:17.871Z,99448.88
2023-08-14T09:06:46.210Z,99464.78
2023-08-14T09:09:15.591Z,99486.63
2023-08-14T09:11:42.767Z,99464.34
2023-08-14T09:14:10.522Z,99478.09
2023-08-14T09:16:37.872Z,99493.72
2023-08-14T09:19:05.032Z,99504.88
2023-08-14T09:21:32.110Z,99498.81
2023-08-14T09:24:00.554Z,99488.00
2023-08-14T09:26:29.104Z,99499.66
2023-08-14T09:28:56.833Z,99493.88
2023-08-14T09:31:23.814Z,99497.63
2023-08-14T09:33:50.871Z,99481.19
2023-08-14T09:36:18.419Z,99509.94
2023-08-14T09:38:45.476Z,99518.88
2023-08-14T09:41:12.514Z,99510.06
2023-08-14T09:43:40.422Z,99513.97
2023-08-14T09:46:12.263Z,99516.69
2023-08-14T09:48:42.312Z,99509.03
2023-08-14T09:51:17.720Z,99515.72
2023-08-14T09:54:09.044Z,99515.31
2023-08-14T09:56:36.838Z,99513.09
2023-08-14T09:59:04.394Z,99499.78
2023-08-14T10:01:32.190Z,99506.59
2023-08-14T10:04:00.592Z,99521.66
2023-08-14T10:06:28.408Z,99478.69
2023-08-14T10:08:57.902Z,99516.84
2023-08-14T10:11:30.286Z,99498.84
2023-08-14T10:14:02.357Z,99524.44
2023-08-14T10:16:35.787Z,99531.06
2023-08-14T10:19:05.703Z,99513.72
2023-08-14T10:21:33.869Z,99528.75
2023-08-14T10:24:03.518Z,99509.16
2023-08-14T10:26:33.130Z,99535.31
2023-08-14T10:29:00.601Z,99518.06
2023-08-14T10:31:29.867Z,99517.97
2023-08-14T10:33:59.570Z,99533.91
2023-08-14T10:36:31.426Z,99535.78
2023-08-14T10:39:19.113Z,99545.75
2023-08-14T10:41:46.910Z,99533.59
2023-08-14T10:44:14.379Z,99529.88
2023-08-14T10:46:44.918Z,99520.22
2023-08-14T10:49:13.643Z,99514.47
2023-08-14T10:51:44.054Z,99528.72
2023-08-14T10:54:13.805Z,99538.91
2023-08-14T10:56:50.516Z,99531.88
2023-08-14T10:59:25.899Z,99538.72
2023-08-14T11:02:13.048Z,99548.53
2023-08-14T11:04:59.832Z,99553.63
2023-08-14T11:07:31.323Z,99559.56
2023-08-14T11:10:01.610Z,99541.16
2023-08-14T11:12:34.996Z,99552.00
2023-08-14T11:15:02.225Z,99538.00
2023-08-14T11:17:33.018Z,99559.38
2023-08-14T11:20:00.046Z,99554.72
2023-08-14T11:22:26.991Z,99544.47
2023-08-14T11:24:54.044Z,99556.31
2023-08-14T11:27:21.230Z,99553.44
2023-08-14T11:29:53.605Z,99545.59
2023-08-14T11:32:23.130Z,99556.13
2023-08-14T11:34:52.036Z,99560.03
2023-08-14T11:37:19.160Z,99553.38
2023-08-14T11:39:46.636Z,99542.47
2023-08-14T11:42:14.365Z,99555.50
2023-08-14T11:44:41.506Z,99565.13
2023-08-14T11:47:09.183Z,99554.53
2023-08-14T11:49:39.001Z,99551.47
2023-08-14T11:52:07.039Z,99559.06
2023-08-14T11:54:35.894Z,99541.97
2023-08-14T11:57:08.868Z,99539.41
2023-08-14T11:59:36.924Z,99548.91
2023-08-14T12:02:04.029Z,99540.25
2023-08-14T12:04:31.665Z,99558.94
2023-08-14T12:06:58.699Z,99565.44
2023-08-14T12:09:29.216Z,99574.69
2023-08-14T12:11:56.932Z,99568.81
2023-08-14T12:14:24.161Z,99564.88
2023-08-14T12:16:51.261Z,99559.50
2023-08-14T12:19:22.114Z,99577.28
2023-08-14T12:21:57.789Z,99567.00
2023-08-14T12:24:25.140Z,99554.47
2023-08-14T12:26:52.248Z,99557.78
2023-08-14T12:29:20.236Z,99553.53
2023-08-14T12:31:47.980Z,99566.22
2023-08-14T12:34:15.642Z,99565.34
2023-08-14T12:36:42.671Z,99570.81
2023-08-14T12:39:09.758Z,99573.94
2023-08-14T12:41:36.873Z,99574.84
2023-08-14T12:44:04.475Z,99569.69
2023-08-14T12:46:31.608Z,99580.28
2023-08-14T12:48:58.962Z,99573.47
2023-08-14T12:51:26.042Z,99587.56
2023-08-14T12:53:53.191Z,99585.34
2023-08-14T12:58:48.824Z,99569.25
2023-08-14T13:01:16.778Z,99585.75
2023-08-14T13:03:43.979Z,99583.81
2023-08-14T13:06:11.403Z,99586.41
2023-08-14T13:08:38.558Z,99566.22
2023-08-14T13:11:05.510Z,99576.19
2023-08-14T13:13:32.725Z,99559.00
2023-08-14T13:16:02.516Z,99565.34
2023-08-14T13:18:30.081Z,99585.41
2023-08-14T13:20:57.673Z,99581.91
2023-08-14T13:23:24.714Z,99580.03
2023-08-14T13:25:52.032Z,99553.78
2023-08-14T13:28:19.101Z,99562.41
2023-08-14T13:30:46.260Z,99579.16
2023-08-14T13:33:13.625Z,99573.97
2023-08-14T13:35:40.770Z,99569.09
2023-08-14T13:38:08.025Z,99577.25
2023-08-14T13:40:35.835Z,99580.03
2023-08-14T13:43:03.765Z,99564.59
2023-08-14T13:45:31.758Z,99588.25
2023-08-14T13:47:59.238Z,99585.56
2023-08-14T13:53:00.371Z,99557.13
2023-08-14T13:55:34.918Z,99581.75
2023-08-14T13:58:02.948Z,99593.91
2023-08-14T14:00:31.444Z,99586.44
2023-08-14T14:03:00.006Z,99594.94
2023-08-14T14:05:28.115Z,99593.00
2023-08-14T14:07:57.469Z,99582.25
2023-08-14T14:10:28.369Z,99595.22
2023-08-14T14:15:26.174Z,99590.59
2023-08-14T14:17:53.368Z,99574.63
2023-08-14T14:20:20.589Z,99597.31
2023-08-14T14:22:47.599Z,99595.25
2023-08-14T14:25:14.651Z,99579.66
2023-08-14T14:27:41.782Z,99593.59
2023-08-14T14:30:09.320Z,99574.75
2023-08-14T14:32:36.803Z,99579.22
2023-08-14T14:35:04.203Z,99580.53
2023-08-14T14:37:32.640Z,99590.66
2023-08-14T14:39:59.802Z,99593.16
2023-08-14T14:42:27.123Z,99564.44
2023-08-14T14:44:57.251Z,99577.41
2023-08-14T14:47:25.190Z,99608.66
2023-08-14T14:49:53.175Z,99590.84
2023-08-14T14:52:20.773Z,99580.16
2023-08-14T14:54:47.904Z,99594.13
2023-08-14T14:57:15.071Z,99581.22
2023-08-14T14:59:42.929Z,99572.19
2023-08-14T15:02:23.493Z,99605.28
2023-08-14T15:04:55.240Z,99597.75
2023-08-14T15:07:22.553Z,99591.00
2023-08-14T15:09:49.764Z,99565.31
2023-08-14T15:12:16.814Z,99582.66
2023-08-14T15:14:43.925Z,99594.97
2023-08-14T15:17:11.939Z,99600.81
2023-08-14T15:19:39.420Z,99589.63
2023-08-14T15:22:06.581Z,99597.00
2023-08-14T15:24:33.723Z,99585.88
2023-08-14T15:27:00.656Z,99601.28
2023-08-14T15:29:27.692Z,99602.47
2023-08-14T15:31:54.862Z,99602.81
2023-08-14T15:34:21.980Z,99593.47
2023-08-14T15:36:49.028Z,99601.03
2023-08-14T15:39:16.062Z,99613.63
2023-08-14T15:41:43.608Z,99610.53
2023-08-14T15:44:10.640Z,99604.06
2023-08-14T15:46:37.889Z,99599.75
2023-08-14T15:49:05.163Z,99630.38
2023-08-14T15:51:32.225Z,99606.94
2023-08-14T15:53:59.285Z,99621.22
2023-08-14T15:56:27.105Z,99606.72
2023-08-14T15:58:54.188Z,99608.34
2023-08-14T16:01:21.353Z,99617.81
2023-08-14T16:03:48.642Z,99616.34
2023-08-14T16:06:15.597Z,99630.75
2023-08-14T16:08:42.748Z,99611.03
2023-08-14T16:11:09.792Z,99615.19
2023-08-14T16:13:36.875Z,99624.22
2023-08-14T16:16:04.067Z,99616.75
2023-08-14T16:18:32.302Z,99632.22
2023-08-14T16:21:00.578Z,99632.13
2023-08-14T16:23:27.839Z,99636.19
2023-08-14T16:25:54.940Z,99636.38
2023-08-14T16:28:22.317Z,99637.59
2023-08-14T16:30:49.932Z,99632.19
2023-08-14T16:33:17.128Z,99622.94
2023-08-14T16:35:44.172Z,99638.53
2023-08-14T16:38:11.247Z,99640.25
2023-08-14T16:40:43.632Z,99656.25
2023-08-14T16:43:11.392Z,99655.97
2023-08-14T16:45:43.207Z,99658.09
2023-08-14T16:48:11.449Z,99655.41
2023-08-14T16:50:39.633Z,99676.94
2023-08-14T16:53:07.096Z,99656.69
2023-08-14T16:55:34.896Z,99670.22
2023-08-14T16:58:02.651Z,99673.28
2023-08-14T17:00:29.776Z,99645.44
2023-08-14T17:02:58.227Z,99665.56
2023-08-14T17:05:25.474Z,99658.97
2023-08-14T17:07:52.873Z,99664.66
2023-08-14T17:10:20.054Z,99679.41
2023-08-14T17:12:47.960Z,99686.47
2023-08-14T17:15:15.378Z,99689.91
2023-08-14T17:17:42.943Z,99669.69
2023-08-14T17:20:11.391Z,99685.34
2023-08-14T17:22:42.407Z,99679.66
2023-08-14T17:25:10.016Z,99687.16
2023-08-14T17:27:37.463Z,99692.59
2023-08-14T17:30:05.032Z,99686.25
2023-08-14T17:32:33.892Z,99695.44
2023-08-14T17:35:01.149Z,99693.38
2023-08-14T17:37:28.251Z,99686.59
2023-08-14T17:39:55.976Z,99696.28
2023-08-14T17:42:23.430Z,99704.53
2023-08-14T17:44:50.397Z,99690.59
2023-08-14T17:47:17.843Z,99687.50
2023-08-14T17:49:45.271Z,99706.19
2023-08-14T17:52:12.325Z,99699.25
2023-08-14T17:54:39.476Z,99690.84
2023-08-14T17:57:06.754Z,99685.66
2023-08-14T17:59:33.984Z,99680.72
2023-08-14T18:02:01.034Z,99706.22
2023-08-14T18:04:28.051Z,99682.44
2023-08-14T18:06:55.754Z,99693.19
2023-08-14T18:09:22.785Z,99700.13
2023-08-14T18:11:49.849Z,99677.53
2023-08-14T18:14:17.081Z,99703.16
2023-08-14T18:16:44.172Z,99697.09
2023-08-14T18:19:28.789Z,99701.66
2023-08-14T18:21:57.527Z,99712.44
2023-08-14T18:24:24.498Z,99702.88
2023-08-14T18:26:51.817Z,99717.22
2023-08-14T18:29:18.924Z,99716.34
2023-08-14T18:31:46.526Z,99714.03
2023-08-14T18:34:13.868Z,99688.03
2023-08-14T18:36:41.021Z,99691.63
2023-08-14T18:39:08.198Z,99722.59
2023-08-14T18:41:37.974Z,99734.25
2023-08-14T18:44:05.972Z,99730.75
2023-08-14T18:46:33.314Z,99739.88
2023-08-14T18:49:00.447Z,99734.91
2023-08-14T18:51:27.568Z,99738.81
2023-08-14T18:53:55.029Z,99725.03
2023-08-14T18:56:22.137Z,99726.91
2023-08-14T18:58:50.879Z,99709.66
2023-08-14T19:01:18.117Z,99733.28
2023-08-14T19:03:45.222Z,99731.97
2023-08-14T19:06:12.226Z,99739.16
2023-08-14T19:08:39.236Z,99744.34
2023-08-14T19:11:06.382Z,99748.03
2023-08-14T19:13:33.654Z,99723.72
2023-08-14T19:16:01.114Z,99744.84
2023-08-14T19:18:28.585Z,99736.81
2023-08-14T19:20:55.595Z,99724.63
2023-08-14T19:23:22.696Z,99737.72
2023-08-14T19:25:49.941Z,99730.69
2023-08-14T19:28:22.115Z,99726.47
2023-08-14T19:30:51.914Z,99720.66
2023-08-14T19:33:18.986Z,99736.38
2023-08-14T19:35:46.209Z,99728.34
2023-08-14T19:38:13.293Z,99740.91
2023-08-14T19:40:40.370Z,99739.19
2023-08-14T19:43:07.562Z,99740.91
2023-08-14T19:45:36.662Z,99721.75
2023-08-14T19:48:04.689Z,99741.75
2023-08-14T19:50:33.691Z,99740.00
2023-08-14T19:53:00.833Z,99714.78
2023-08-14T19:55:28.134Z,99711.28
2023-08-14T19:57:55.094Z,99742.91
2023-08-14T20:00:22.174Z,99740.28
2023-08-14T20:02:54.006Z,99728.03
2023-08-14T20:05:21.521Z,99752.00
2023-08-14T20:07:48.560Z,99741.34
2023-08-14T20:10:15.582Z,99751.19
2023-08-14T20:12:43.277Z,99751.19
2023-08-14T20:15:11.027Z,99737.81
2023-08-14T20:20:23.384Z,99742.41
2023-08-14T20:22:50.559Z,99751.25
2023-08-14T20:25:17.683Z,99750.50
2023-08-14T20:27:44.812Z,99755.97
2023-08-14T20:30:12.610Z,99763.19
2023-08-14T20:32:39.841Z,99735.31
2023-08-14T20:35:09.084Z,99757.97
2023-08-14T20:37:36.620Z,99756.72
2023-08-14T20:40:04.863Z,99736.88
2023-08-14T20:42:32.074Z,99738.25
2023-08-14T20:44:59.379Z,99761.63
2023-08-14T20:47:26.552Z,99753.72
2023-08-14T20:49:53.571Z,99738.56
2023-08-14T20:52:23.930Z,99735.16
2023-08-14T20:54:51.885Z,99735.88
2023-08-14T20:57:23.189Z,99746.31
2023-08-14T20:59:50.348Z,99774.59
2023-08-14T21:02:17.395Z,99769.06
2023-08-14T21:04:44.821Z,99755.53
2023-08-14T21:07:11.913Z,99767.16
2023-08-14T21:09:40.132Z,99762.97
2023-08-14T21:12:07.896Z,99766.28
2023-08-14T21:14:35.060Z,99760.06
2023-08-14T21:17:02.342Z,99773.31
2023-08-14T21:19:29.359Z,99772.69
2023-08-14T21:21:56.383Z,99752.72
2023-08-14T21:24:24.011Z,99776.81
2023-08-14T21:26:55.064Z,99758.03
2023-08-14T21:29:22.054Z,99760.22
2023-08-14T21:31:49.079Z,99761.78
2023-08-14T21:34:17.379Z,99751.03
2023-08-14T21:36:44.595Z,99750.94
2023-08-14T21:39:11.751Z,99752.66
2023-08-14T21:41:38.773Z,99774.91
2023-08-14T21:44:05.940Z,99772.94
2023-08-14T21:46:35.235Z,99772.88
2023-08-14T21:49:02.814Z,99755.97
2023-08-14T21:51:29.798Z,99773.50
2023-08-14T21:53:56.828Z,99775.25
2023-08-14T21:56:23.822Z,99783.47
2023-08-14T21:58:50.927Z,99741.41
2023-08-14T22:01:18.070Z,99778.31
2023-08-14T22:03:45.182Z,99755.88
2023-08-14T22:06:12.649Z,99761.56
2023-08-14T22:08:39.745Z,99752.59
2023-08-14T22:11:06.853Z,99791.81
2023-08-14T22:13:33.858Z,99791.81
2023-08-14T22:16:00.907Z,99789.19
2023-08-14T22:18:27.935Z,99758.47
2023-08-14T22:20:55.598Z,99785.88
2023-08-14T22:23:23.151Z,99778.69
2023-08-14T22:25:50.384Z,99744.75
2023-08-14T22:28:17.478Z,99788.91
2023-08-14T22:30:44.502Z,99780.09
2023-08-14T22:33:12.452Z,99768.97
2023-08-14T22:35:39.647Z,99783.53
2023-08-14T22:38:06.684Z,99786.44
2023-08-14T22:40:33.653Z,99785.50
2023-08-14T22:43:00.707Z,99791.03
2023-08-14T22:45:31.375Z,99794.22
2023-08-14T22:47:58.419Z,99784.53
2023-08-14T22:50:25.561Z,99763.97
2023-08-14T22:52:52.703Z,99795.19
2023-08-14T22:55:19.613Z,99783.19
2023-08-14T22:57:47.230Z,99791.91
2023-08-14T23:00:14.732Z,99780.72
2023-08-14T23:02:42.260Z,99785.41
2023-08-14T23:05:09.881Z,99781.09
2023-08-14T23:07:36.905Z,99784.00
2023-08-14T23:10:04.216Z,99790.00
2023-08-14T23:12:31.700Z,99792.31
2023-08-14T23:14:58.859Z,99761.09
2023-08-14T23:17:25.887Z,99802.75
2023-08-14T23:19:53.099Z,99798.56
2023-08-14T23:22:20.180Z,99806.16
2023-08-14T23:24:47.341Z,99787.09
2023-08-14T23:27:17.082Z,99783.16
2023-08-14T23:29:44.042Z,99802.09
2023-08-14T23:32:11.021Z,99801.63
2023-08-14T23:34:38.095Z,99803.94
2023-08-14T23:37:05.201Z,99785.81
2023-08-14T23:39:32.266Z,99799.81
2023-08-14T23:41:59.410Z,99787.50
2023-08-14T23:44:26.922Z,99806.84
2023-08-14T23:46:54.207Z,99806.44
2023-08-14T23:49:21.274Z,99806.91
2023-08-14T23:51:48.305Z,99794.03
2023-08-14T23:54:15.469Z,99777.75
2023-08-14T23:56:42.508Z,99813.59
2023-08-14T23:59:09.617Z,99812.19
